createdAt,value
2023-04-02T00:01:23.005Z,86.49
2023-04-02T00:03:54.055Z,85.94
2023-04-02T00:06:32.469Z,85.50
2023-04-02T00:09:15.990Z,86.23
2023-04-02T00:11:49.581Z,85.72
2023-04-02T00:14:36.504Z,85.41
2023-04-02T00:17:05.725Z,85.98
2023-04-02T00:19:44.676Z,85.63
2023-04-02T00:22:19.515Z,85.29
2023-04-02T00:24:50.097Z,85.83
2023-04-02T00:27:17.474Z,85.74
2023-04-02T00:29:54.406Z,85.11
2023-04-02T00:32:30.904Z,85.53
2023-04-02T00:34:59.163Z,85.48
2023-04-02T00:37:38.560Z,85.32
2023-04-02T00:40:19.558Z,85.32
2023-04-02T00:42:48.019Z,85.34
2023-04-02T00:45:37.840Z,85.19
2023-04-02T00:48:52.860Z,84.80
2023-04-02T00:51:41.680Z,85.41
2023-04-02T00:54:15.838Z,85.71
2023-04-02T00:56:48.004Z,85.96
2023-04-02T00:59:26.755Z,85.48
2023-04-02T01:02:22.546Z,85.30
2023-04-02T01:05:02.832Z,85.58
2023-04-02T01:07:51.172Z,85.99
2023-04-02T01:10:31.613Z,85.93
2023-04-02T01:13:13.843Z,85.80
2023-04-02T01:15:51.437Z,85.97
2023-04-02T01:19:08.624Z,85.19
2023-04-02T01:22:11.930Z,85.77
2023-04-02T01:24:39.028Z,85.83
2023-04-02T01:27:18.594Z,85.97
2023-04-02T01:29:56.549Z,85.72
2023-04-02T01:32:27.062Z,86.43
2023-04-02T01:34:55.832Z,85.95
2023-04-02T01:37:51.838Z,86.35
2023-04-02T01:40:41.813Z,86.25
2023-04-02T01:43:29.978Z,85.86
2023-04-02T01:46:06.536Z,86.16
2023-04-02T01:48:33.799Z,86.36
2023-04-02T01:51:03.955Z,86.22
2023-04-02T01:53:31.497Z,86.26
2023-04-02T01:56:02.582Z,85.90
2023-04-02T01:58:32.658Z,86.01
2023-04-02T02:01:07.100Z,86.21
2023-04-02T02:03:35.456Z,86.27
2023-04-02T02:06:06.524Z,86.14
2023-04-02T02:08:45.922Z,85.64
2023-04-02T02:11:22.876Z,86.06
2023-04-02T02:14:00.728Z,85.88
2023-04-02T02:16:31.744Z,86.30
2023-04-02T02:19:03.079Z,85.88
2023-04-02T02:21:39.850Z,85.73
2023-04-02T02:24:31.571Z,86.89
2023-04-02T02:27:24.260Z,85.76
2023-04-02T02:30:11.324Z,86.35
2023-04-02T02:33:07.059Z,86.10
2023-04-02T02:35:50.811Z,86.16
2023-04-02T02:38:41.232Z,86.47
2023-04-02T02:41:37.472Z,85.67
2023-04-02T02:44:10.656Z,86.23
2023-04-02T02:46:46.697Z,85.96
2023-04-02T02:49:20.040Z,86.28
2023-04-02T02:52:03.461Z,87.19
2023-04-02T02:55:13.172Z,86.34
2023-04-02T02:57:59.859Z,86.40
2023-04-02T03:00:31.902Z,86.81
2023-04-02T03:03:00.735Z,87.15
2023-04-02T03:05:31.199Z,87.14
2023-04-02T03:08:10.474Z,87.18
2023-04-02T03:10:56.387Z,86.23
2023-04-02T03:13:29.233Z,88.03
2023-04-02T03:16:33.312Z,88.22
2023-04-02T03:19:30.096Z,87.42
2023-04-02T03:22:08.556Z,87.30
2023-04-02T03:25:16.221Z,88.34
2023-04-02T03:27:49.363Z,87.87
2023-04-02T03:30:43.921Z,87.59
2023-04-02T03:33:23.897Z,87.95
2023-04-02T03:36:30.318Z,88.07
2023-04-02T03:39:15.232Z,87.56
2023-04-02T03:42:08.487Z,87.58
2023-04-02T03:44:52.503Z,87.34
2023-04-02T03:48:19.113Z,87.26
2023-04-02T03:51:03.935Z,86.66
2023-04-02T03:53:32.452Z,87.40
2023-04-02T03:56:01.526Z,87.64
2023-04-02T03:58:47.656Z,88.18
2023-04-02T04:01:31.642Z,88.11
2023-04-02T04:04:10.384Z,87.97
2023-04-02T04:06:41.900Z,87.95
2023-04-02T04:09:29.654Z,87.35
2023-04-02T04:12:36.202Z,88.41
2023-04-02T04:15:22.199Z,87.15
2023-04-02T04:18:40.839Z,87.10
2023-04-02T04:21:30.810Z,87.62
2023-04-02T04:24:20.235Z,87.92
2023-04-02T04:27:17.087Z,87.04
2023-04-02T04:30:30.171Z,87.30
2023-04-02T04:33:23.059Z,87.07
2023-04-02T04:35:59.168Z,87.77
2023-04-02T04:38:35.312Z,87.73
2023-04-02T04:41:24.264Z,87.69
2023-04-02T04:44:17.230Z,87.70
2023-04-02T04:47:03.354Z,88.00
2023-04-02T04:49:41.638Z,87.80
2023-04-02T04:52:33.924Z,87.48
2023-04-02T04:55:03.521Z,87.68
2023-04-02T04:57:38.753Z,87.30
2023-04-02T05:00:30.624Z,87.56
2023-04-02T05:03:09.139Z,87.46
2023-04-02T05:05:40.636Z,87.75
2023-04-02T05:08:39.417Z,87.17
2023-04-02T05:11:41.212Z,87.56
2023-04-02T05:14:43.303Z,87.84
2023-04-02T05:18:11.005Z,88.82
2023-04-02T05:21:19.488Z,87.97
2023-04-02T05:24:24.905Z,88.18
2023-04-02T05:27:00.247Z,88.73
2023-04-02T05:29:36.119Z,88.36
2023-04-02T05:32:25.845Z,88.04
2023-04-02T05:34:56.004Z,88.17
2023-04-02T05:37:28.060Z,88.06
2023-04-02T05:40:11.000Z,87.84
2023-04-02T05:42:39.948Z,88.27
2023-04-02T05:45:13.515Z,88.88
2023-04-02T05:47:44.431Z,89.46
2023-04-02T05:50:30.563Z,88.81
2023-04-02T05:53:14.458Z,88.43
2023-04-02T05:56:11.218Z,87.84
2023-04-02T05:58:49.291Z,88.28
2023-04-02T06:01:47.209Z,88.81
2023-04-02T06:04:57.649Z,87.75
2023-04-02T06:07:41.612Z,88.80
2023-04-02T06:10:25.735Z,89.42
2023-04-02T06:13:08.627Z,88.28
2023-04-02T06:15:39.970Z,88.91
2023-04-02T06:18:24.864Z,88.42
2023-04-02T06:20:53.559Z,88.27
2023-04-02T06:23:38.044Z,88.27
2023-04-02T06:26:31.611Z,87.53
2023-04-02T06:29:37.964Z,87.57
2023-04-02T06:32:08.882Z,87.76
2023-04-02T06:34:42.313Z,88.51
2023-04-02T06:37:36.206Z,87.68
2023-04-02T06:40:50.331Z,87.48
2023-04-02T06:44:01.028Z,87.59
2023-04-02T06:46:52.423Z,87.90
2023-04-02T06:49:51.024Z,87.65
2023-04-02T06:52:45.907Z,87.79
2023-04-02T06:55:48.857Z,87.16
2023-04-02T06:58:21.221Z,88.24
2023-04-02T07:00:50.951Z,88.19
2023-04-02T07:03:32.138Z,87.72
2023-04-02T07:06:05.272Z,87.79
2023-04-02T07:08:33.932Z,88.56
2023-04-02T07:11:01.278Z,88.36
2023-04-02T07:13:29.143Z,87.93
2023-04-02T07:15:56.840Z,88.43
2023-04-02T07:18:32.202Z,88.28
2023-04-02T07:21:01.852Z,88.46
2023-04-02T07:23:29.130Z,88.42
2023-04-02T07:25:57.400Z,88.62
2023-04-02T07:28:24.533Z,88.46
2023-04-02T07:30:52.297Z,88.54
2023-04-02T07:33:25.909Z,88.33
2023-04-02T07:35:55.654Z,88.56
2023-04-02T07:38:23.054Z,88.76
2023-04-02T07:40:50.359Z,88.68
2023-04-02T07:43:17.315Z,88.60
2023-04-02T07:45:44.372Z,88.46
2023-04-02T07:48:14.190Z,88.49
2023-04-02T07:50:41.744Z,88.89
2023-04-02T07:53:37.771Z,88.57
2023-04-02T07:56:05.944Z,88.42
2023-04-02T07:58:33.692Z,88.42
2023-04-02T08:01:01.675Z,88.68
2023-04-02T08:03:29.492Z,88.98
2023-04-02T08:05:58.749Z,88.57
2023-04-02T08:08:26.218Z,89.00
2023-04-02T08:10:53.280Z,88.76
2023-04-02T08:13:20.362Z,88.93
2023-04-02T08:15:48.270Z,88.64
2023-04-02T08:18:15.221Z,88.58
2023-04-02T08:20:42.196Z,88.30
2023-04-02T08:23:17.066Z,88.28
2023-04-02T08:25:47.076Z,88.47
2023-04-02T08:28:14.350Z,88.60
2023-04-02T08:30:41.757Z,89.07
2023-04-02T08:33:08.849Z,88.55
2023-04-02T08:35:36.332Z,88.59
2023-04-02T08:38:03.695Z,89.13
2023-04-02T08:40:41.635Z,88.93
2023-04-02T08:43:38.715Z,88.61
2023-04-02T08:46:19.019Z,88.88
2023-04-02T08:48:55.339Z,88.68
2023-04-02T08:51:30.743Z,88.86
2023-04-02T08:54:49.234Z,88.51
2023-04-02T08:57:44.395Z,89.01
2023-04-02T09:00:44.027Z,88.77
2023-04-02T09:03:40.287Z,88.97
2023-04-02T09:06:14.715Z,89.59
2023-04-02T09:08:46.677Z,89.55
2023-04-02T09:11:47.757Z,89.31
2023-04-02T09:14:21.456Z,89.15
2023-04-02T09:17:01.845Z,89.30
2023-04-02T09:19:40.878Z,89.38
2023-04-02T09:22:31.671Z,89.59
2023-04-02T09:25:02.458Z,89.96
2023-04-02T09:27:35.420Z,89.59
2023-04-02T09:30:30.343Z,89.82
2023-04-02T09:33:09.043Z,90.06
2023-04-02T09:35:57.319Z,89.67
2023-04-02T09:38:30.762Z,90.21
2023-04-02T09:41:04.635Z,90.63
2023-04-02T09:43:39.223Z,90.48
2023-04-02T09:46:24.465Z,90.42
2023-04-02T09:49:01.976Z,90.47
2023-04-02T09:51:34.705Z,90.41
2023-04-02T09:54:04.590Z,90.54
2023-04-02T09:56:35.806Z,90.65
2023-04-02T09:59:21.871Z,90.36
2023-04-02T10:01:54.879Z,90.91
2023-04-02T10:04:47.794Z,90.61
2023-04-02T10:07:36.938Z,90.99
2023-04-02T10:10:18.697Z,91.12
2023-04-02T10:13:18.657Z,91.31
2023-04-02T10:16:12.762Z,91.45
2023-04-02T10:18:58.778Z,91.42
2023-04-02T10:21:37.239Z,91.87
2023-04-02T10:24:15.672Z,91.73
2023-04-02T10:27:09.448Z,91.93
2023-04-02T10:30:05.267Z,92.09
2023-04-02T10:33:16.606Z,92.15
2023-04-02T10:36:30.271Z,92.21
2023-04-02T10:39:15.837Z,92.02
2023-04-02T10:41:58.166Z,91.66
2023-04-02T10:44:45.315Z,92.28
2023-04-02T10:47:27.359Z,92.13
2023-04-02T10:50:33.976Z,92.25
2023-04-02T10:53:21.174Z,92.33
2023-04-02T10:56:08.707Z,92.19
2023-04-02T10:58:57.548Z,92.28
2023-04-02T11:01:30.454Z,92.05
2023-04-02T11:04:01.833Z,92.14
2023-04-02T11:06:56.080Z,92.20
2023-04-02T11:09:37.653Z,92.31
2023-04-02T11:12:07.141Z,92.42
2023-04-02T11:14:34.248Z,92.39
2023-04-02T11:17:03.311Z,92.53
2023-04-02T11:19:35.996Z,92.24
2023-04-02T11:22:15.267Z,92.02
2023-04-02T11:24:53.424Z,91.89
2023-04-02T11:27:29.553Z,92.14
2023-04-02T11:30:06.737Z,91.51
2023-04-02T11:32:36.629Z,91.31
2023-04-02T11:35:31.225Z,91.58
2023-04-02T11:38:23.541Z,91.15
2023-04-02T11:40:58.762Z,91.43
2023-04-02T11:43:35.441Z,91.47
2023-04-02T11:46:41.977Z,90.99
2023-04-02T11:49:40.696Z,91.56
2023-04-02T11:52:46.335Z,91.47
2023-04-02T11:55:35.146Z,91.57
2023-04-02T11:58:07.672Z,90.93
2023-04-02T12:01:25.743Z,90.01
2023-04-02T12:04:26.473Z,89.43
2023-04-02T12:07:34.896Z,88.95
2023-04-02T12:10:24.857Z,88.65
2023-04-02T12:12:51.965Z,88.87
2023-04-02T12:15:46.955Z,88.59
2023-04-02T12:18:22.137Z,88.39
2023-04-02T12:20:56.241Z,88.16
2023-04-02T12:23:33.945Z,88.46
2023-04-02T12:26:06.441Z,88.42
2023-04-02T12:28:34.480Z,88.20
2023-04-02T12:31:17.504Z,88.33
2023-04-02T12:33:45.736Z,88.69
2023-04-02T12:36:14.370Z,88.60
2023-04-02T12:38:51.986Z,88.61
2023-04-02T12:41:30.285Z,88.55
2023-04-02T12:44:06.282Z,87.84
2023-04-02T12:46:35.462Z,88.63
2023-04-02T12:49:07.608Z,88.94
2023-04-02T12:51:36.981Z,88.57
2023-04-02T12:54:04.462Z,88.58
2023-04-02T12:56:31.610Z,89.07
2023-04-02T12:59:01.260Z,89.09
2023-04-02T13:01:31.669Z,88.68
2023-04-02T13:04:12.530Z,88.83
2023-04-02T13:06:47.424Z,88.76
2023-04-02T13:09:31.361Z,88.72
2023-04-02T13:11:59.115Z,89.03
2023-04-02T13:14:26.935Z,89.10
2023-04-02T13:16:54.830Z,88.82
2023-04-02T13:19:31.140Z,88.57
2023-04-02T13:22:01.950Z,88.34
2023-04-02T13:24:33.442Z,88.19
2023-04-02T13:27:03.813Z,88.25
2023-04-02T13:29:36.152Z,88.68
2023-04-02T13:32:07.720Z,88.60
2023-04-02T13:34:34.665Z,88.65
2023-04-02T13:37:01.670Z,89.04
2023-04-02T13:39:30.208Z,88.69
2023-04-02T13:42:04.444Z,88.68
2023-04-02T13:44:35.827Z,88.58
2023-04-02T13:47:03.085Z,88.41
2023-04-02T13:49:31.068Z,88.64
2023-04-02T13:52:04.185Z,88.62
2023-04-02T13:54:49.419Z,88.65
2023-04-02T13:57:17.344Z,88.48
2023-04-02T13:59:44.422Z,88.73
2023-04-02T14:02:18.805Z,89.12
2023-04-02T14:04:51.029Z,88.79
2023-04-02T14:07:55.459Z,88.37
2023-04-02T14:10:57.590Z,88.92
2023-04-02T14:13:45.363Z,88.63
2023-04-02T14:16:27.940Z,88.82
2023-04-02T14:19:12.514Z,88.38
2023-04-02T14:22:11.202Z,88.39
2023-04-02T14:25:02.239Z,88.59
2023-04-02T14:27:48.172Z,88.19
2023-04-02T14:30:53.567Z,88.65
2023-04-02T14:34:12.713Z,88.59
2023-04-02T14:36:56.453Z,88.72
2023-04-02T14:39:46.314Z,88.71
2023-04-02T14:42:40.398Z,88.39
2023-04-02T14:45:26.353Z,89.01
2023-04-02T14:48:25.646Z,88.50
2023-04-02T14:51:14.504Z,88.59
2023-04-02T14:53:56.352Z,88.70
2023-04-02T14:56:25.580Z,88.72
2023-04-02T14:59:34.291Z,88.34
2023-04-02T15:02:30.381Z,88.44
2023-04-02T15:05:04.218Z,88.65
2023-04-02T15:07:41.642Z,88.79
2023-04-02T15:10:30.859Z,88.82
2023-04-02T15:12:59.809Z,88.72
2023-04-02T15:15:58.675Z,89.00
2023-04-02T15:18:25.682Z,88.41
2023-04-02T15:21:29.155Z,88.48
2023-04-02T15:24:26.736Z,88.56
2023-04-02T15:27:07.152Z,88.50
2023-04-02T15:30:07.349Z,88.10
2023-04-02T15:32:34.266Z,88.47
2023-04-02T15:35:28.705Z,88.49
2023-04-02T15:38:09.108Z,88.56
2023-04-02T15:41:23.703Z,88.26
2023-04-02T15:44:30.238Z,88.00
2023-04-02T15:47:22.526Z,88.31
2023-04-02T15:50:36.168Z,87.95
2023-04-02T15:53:26.655Z,87.79
2023-04-02T15:56:17.847Z,87.84
2023-04-02T15:59:00.539Z,87.93
2023-04-02T16:01:49.126Z,87.86
2023-04-02T16:04:51.732Z,87.86
2023-04-02T16:07:30.169Z,88.03
2023-04-02T16:10:42.378Z,87.85
2023-04-02T16:13:36.937Z,87.86
2023-04-02T16:16:30.985Z,87.87
2023-04-02T16:19:34.492Z,88.03
2023-04-02T16:22:49.725Z,87.87
2023-04-02T16:25:25.291Z,87.98
2023-04-02T16:28:26.387Z,87.58
2023-04-02T16:31:02.222Z,87.67
2023-04-02T16:34:15.792Z,87.17
2023-04-02T16:37:04.529Z,87.46
2023-04-02T16:39:43.790Z,87.46
2023-04-02T16:42:53.984Z,87.05
2023-04-02T16:45:47.669Z,87.38
2023-04-02T16:48:27.737Z,87.67
2023-04-02T16:51:24.832Z,87.19
2023-04-02T16:54:32.522Z,86.92
2023-04-02T16:57:33.854Z,87.02
2023-04-02T17:00:30.575Z,86.87
2023-04-02T17:03:12.551Z,87.46
2023-04-02T17:05:55.750Z,86.90
2023-04-02T17:08:30.866Z,87.02
2023-04-02T17:11:08.815Z,87.13
2023-04-02T17:13:51.374Z,86.94
2023-04-02T17:16:32.368Z,87.09
2023-04-02T17:19:00.216Z,86.67
2023-04-02T17:21:30.961Z,87.06
2023-04-02T17:24:23.090Z,86.57
2023-04-02T17:27:05.078Z,86.44
2023-04-02T17:29:40.567Z,86.74
2023-04-02T17:32:26.018Z,86.74
2023-04-02T17:34:53.220Z,86.76
2023-04-02T17:37:34.828Z,86.03
2023-04-02T17:40:48.103Z,86.09
2023-04-02T17:43:36.498Z,85.99
2023-04-02T17:46:34.936Z,85.89
2023-04-02T17:49:23.047Z,85.92
2023-04-02T17:52:22.070Z,85.58
2023-04-02T17:55:22.098Z,85.52
2023-04-02T17:58:32.113Z,85.72
2023-04-02T18:01:30.358Z,85.97
2023-04-02T18:04:17.196Z,86.04
2023-04-02T18:07:03.505Z,85.96
2023-04-02T18:10:11.777Z,85.64
2023-04-02T18:13:12.428Z,85.77
2023-04-02T18:16:00.735Z,85.43
2023-04-02T18:18:58.324Z,85.78
2023-04-02T18:21:33.001Z,85.84
2023-04-02T18:24:21.199Z,85.63
2023-04-02T18:27:16.185Z,85.61
2023-04-02T18:30:26.669Z,85.36
2023-04-02T18:33:31.658Z,85.19
2023-04-02T18:36:22.720Z,85.17
2023-04-02T18:39:21.928Z,85.45
2023-04-02T18:42:51.066Z,84.71
2023-04-02T18:46:17.634Z,84.97
2023-04-02T18:49:19.503Z,85.22
2023-04-02T18:51:52.359Z,85.04
2023-04-02T18:54:41.193Z,84.76
2023-04-02T18:57:19.825Z,84.62
2023-04-02T19:00:17.445Z,84.54
2023-04-02T19:03:11.470Z,84.74
2023-04-02T19:06:08.922Z,84.48
2023-04-02T19:08:57.221Z,84.44
2023-04-02T19:11:29.722Z,84.87
2023-04-02T19:14:16.479Z,84.46
2023-04-02T19:17:08.624Z,84.54
2023-04-02T19:20:18.768Z,84.37
2023-04-02T19:23:22.289Z,84.31
2023-04-02T19:26:04.964Z,84.60
2023-04-02T19:29:16.247Z,84.21
2023-04-02T19:32:13.189Z,84.18
2023-04-02T19:34:56.487Z,84.21
2023-04-02T19:37:57.333Z,84.21
2023-04-02T19:41:11.581Z,83.97
2023-04-02T19:43:39.158Z,84.52
2023-04-02T19:46:06.344Z,84.32
2023-04-02T19:49:12.476Z,83.84
2023-04-02T19:51:39.542Z,84.17
2023-04-02T19:54:06.590Z,84.20
2023-04-02T19:56:33.869Z,84.56
2023-04-02T19:59:07.818Z,84.13
2023-04-02T20:01:44.413Z,84.33
2023-04-02T20:04:11.646Z,84.27
2023-04-02T20:06:38.759Z,84.14
2023-04-02T20:09:07.469Z,84.28
2023-04-02T20:11:37.110Z,84.14
2023-04-02T20:14:05.194Z,84.10
2023-04-02T20:16:32.920Z,84.00
2023-04-02T20:19:00.073Z,84.06
2023-04-02T20:21:27.524Z,83.78
2023-04-02T20:23:55.602Z,84.01
2023-04-02T20:26:23.229Z,84.07
2023-04-02T20:28:50.242Z,84.18
2023-04-02T20:31:18.889Z,84.00
2023-04-02T20:33:46.564Z,83.83
2023-04-02T20:36:17.774Z,83.92
2023-04-02T20:38:45.550Z,83.54
2023-04-02T20:41:15.582Z,83.79
2023-04-02T20:43:42.708Z,82.81
2023-04-02T20:46:12.557Z,83.60
2023-04-02T20:48:40.216Z,83.48
2023-04-02T20:51:09.378Z,83.42
2023-04-02T20:53:38.181Z,83.69
2023-04-02T20:56:11.912Z,83.28
2023-04-02T20:58:40.570Z,83.50
2023-04-02T21:01:19.879Z,83.66
2023-04-02T21:03:48.234Z,83.44
2023-04-02T21:06:19.109Z,82.95
2023-04-02T21:08:46.804Z,83.11
2023-04-02T21:11:14.315Z,83.03
2023-04-02T21:13:43.919Z,83.24
2023-04-02T21:16:14.216Z,83.05
2023-04-02T21:18:41.247Z,83.34
2023-04-02T21:21:08.489Z,82.83
2023-04-02T21:23:35.716Z,82.86
2023-04-02T21:26:06.216Z,82.88
2023-04-02T21:28:34.712Z,82.95
2023-04-02T21:31:10.584Z,82.84
2023-04-02T21:33:41.789Z,82.91
2023-04-02T21:36:11.343Z,82.82
2023-04-02T21:38:47.260Z,82.68
2023-04-02T21:41:24.307Z,82.72
2023-04-02T21:43:52.002Z,82.89
2023-04-02T21:46:23.104Z,82.80
2023-04-02T21:48:50.980Z,82.66
2023-04-02T21:51:25.902Z,83.08
2023-04-02T21:53:54.189Z,83.46
2023-04-02T21:56:31.595Z,83.05
2023-04-02T21:59:01.685Z,83.26
2023-04-02T22:01:32.249Z,83.20
2023-04-02T22:04:02.342Z,83.11
2023-04-02T22:06:32.735Z,83.22
2023-04-02T22:09:04.026Z,83.14
2023-04-02T22:11:35.711Z,83.21
2023-04-02T22:14:04.001Z,83.24
2023-04-02T22:16:33.525Z,83.01
2023-04-02T22:19:02.963Z,82.91
2023-04-02T22:21:31.431Z,82.72
2023-04-02T22:24:04.509Z,82.97
2023-04-02T22:26:32.948Z,83.22
2023-04-02T22:29:04.842Z,83.14
2023-04-02T22:31:34.901Z,83.17
2023-04-02T22:34:03.861Z,83.17
2023-04-02T22:36:31.696Z,83.02
2023-04-02T22:39:00.498Z,82.98
2023-04-02T22:41:29.271Z,83.01
2023-04-02T22:43:57.285Z,83.05
2023-04-02T22:46:25.949Z,82.89
2023-04-02T22:48:54.213Z,82.87
2023-04-02T22:51:23.403Z,83.02
2023-04-02T22:53:52.482Z,82.76
2023-04-02T22:56:24.006Z,83.15
2023-04-02T22:58:51.182Z,83.12
2023-04-02T23:01:29.131Z,82.87
2023-04-02T23:03:56.620Z,82.82
2023-04-02T23:06:24.944Z,82.50
2023-04-02T23:08:52.839Z,82.28
2023-04-02T23:11:25.922Z,83.03
2023-04-02T23:13:56.596Z,82.25
2023-04-02T23:16:26.918Z,82.24
2023-04-02T23:18:55.397Z,82.53
2023-04-02T23:21:22.891Z,82.51
2023-04-02T23:23:51.283Z,82.11
2023-04-02T23:26:27.066Z,82.21
2023-04-02T23:28:54.022Z,82.24
2023-04-02T23:31:22.919Z,82.17
2023-04-02T23:33:51.810Z,82.28
2023-04-02T23:36:32.958Z,82.05
2023-04-02T23:39:09.122Z,81.72
2023-04-02T23:41:38.504Z,82.04
2023-04-02T23:44:05.864Z,81.93
2023-04-02T23:46:33.980Z,82.02
2023-04-02T23:49:01.961Z,82.11
2023-04-02T23:51:32.047Z,81.94
2023-04-02T23:53:59.426Z,81.91
2023-04-02T23:56:26.980Z,81.79
2023-04-02T23:58:54.089Z,81.89
